KWRI

Mc Guire Field (Joint Base Mc Guire Dix Lakehurst) Airport

Wrightstown, New Jersey, USA
TAF KWRI 211800Z 2118/2224 04009KT 9999 SCT030 BKN100 QNH2974INS BECMG 2205/2206 09009KT 9999 SCT030 BKN050 BKN200 QNH2975INS BECMG 2208/2209 09006KT 4800 BR BKN009 OVC100 QNH2990INS BECMG 2214/2215 09012G18KT 9999 NSW SCT009 BKN020 OVC120 QNH2999INS BECMG 2223/2224 07012KT 8000 -SHRA OVC009 QNH2995INS TX28/2120Z TN18/2211Z
Issued Valid From Valid To
Jun-21 @ 18:00 UTC
(11 minutes ago)
Jun-21 @ 18:00 UTC
(11 minutes ago)
Jun-23 @ 00:00 UTC
(-1 days ago)
Jun-21 @ 18:00 to Jun-22 @ 05:00
TAF KWRI 211800Z 2118/2224 04009KT 9999 SCT030 BKN100 QNH2974INS
Wind Visibility Clouds Readings
40° at 9 knots Greater than 6 miles
  • Scattered at 3,000' AGL
  • Broken at 10,000' AGL
Altimeter 29.73" Hg
Pressure 1007 hPa
Becoming Jun-22 @ 05:00 to Jun-22 @ 08:00
BECMG 2205/2206 09009KT 9999 SCT030 BKN050 BKN200 QNH2975INS
Wind Visibility Clouds Readings
90° at 9 knots Greater than 6 miles
  • Scattered at 3,000' AGL
  • Broken at 5,000' AGL
  • Broken at 20,000' AGL
Altimeter 29.76" Hg
Pressure 1008 hPa
Becoming Jun-22 @ 08:00 to Jun-22 @ 14:00
BECMG 2208/2209 09006KT 4800 BR BKN009 OVC100 QNH2990INS
Wind Visibility Clouds Conditions Readings
90° at 6 knots 21/98 miles
  • Broken at 900' AGL
  • Overcast at 10,000' AGL
  • Mist
Altimeter 29.91" Hg
Pressure 1013 hPa
Becoming Jun-22 @ 14:00 to Jun-22 @ 23:00
BECMG 2214/2215 09012G18KT 9999 NSW SCT009 BKN020 OVC120 QNH2999INS
Wind Visibility Clouds Conditions Readings
90° at 12 knots
 Gusting to 18 knots
Greater than 6 miles
  • Scattered at 900' AGL
  • Broken at 2,000' AGL
  • Overcast at 12,000' AGL
Altimeter 30" Hg
Pressure 1016 hPa
Becoming Jun-22 @ 23:00 to Jun-23 @ 00:00
BECMG 2223/2224 07012KT 8000 -SHRA OVC009 QNH2995INS TX28/2120Z TN18/2211Z
Wind Visibility Clouds Conditions Readings
70° at 12 knots 41/97 miles
  • Overcast at 900' AGL
  • Light Rain
Altimeter 29.94" Hg
Pressure 1014 hPa
TAF KWRI 211800Z 2118/2224 04009KT 9999 SCT030 BKN100 QNH2974INS BECMG 2205/2206 09009KT 9999 SCT030 BKN050 BKN200 QNH2975INS BECMG 2208/2209 09006KT 4800 BR BKN009 OVC100 QNH2990INS BECMG 2214/2215 09012G18KT 9999 NSW SCT009 BKN020 OVC120 QNH2999INS BECMG 2223/2224 07012KT 8000 -SHRA OVC009 QNH2995INS TX28/2120Z TN18/2211Z
Issued Jun-21 @ 18:00 UTC
(11 minutes ago)
Valid From Jun-21 @ 18:00 UTC
(11 minutes ago)
Valid To Jun-23 @ 00:00 UTC
(-1 days ago)
Jun-21 @ 18:00 - Jun-22 @ 05:00
Wind Visibility
40° at 9 knots Greater than 6 miles
Clouds
  • Scattered at 3,000' AGL
  • Broken at 10,000' AGL
Becoming Jun-22 @ 05:00 - Jun-22 @ 08:00
Wind Visibility
90° at 9 knots Greater than 6 miles
Clouds
  • Scattered at 3,000' AGL
  • Broken at 5,000' AGL
  • Broken at 20,000' AGL
Becoming Jun-22 @ 08:00 - Jun-22 @ 14:00
Wind Visibility
90° at 6 knots 21/98 miles
Clouds
  • Broken at 900' AGL
  • Overcast at 10,000' AGL
Conditions
  • Mist
Becoming Jun-22 @ 14:00 - Jun-22 @ 23:00
Wind Visibility
90° at 12 knots
 Gusting to 18 knots
Greater than 6 miles
Clouds
  • Scattered at 900' AGL
  • Broken at 2,000' AGL
  • Overcast at 12,000' AGL
Conditions
Becoming Jun-22 @ 23:00 - Jun-23 @ 00:00
Wind Visibility
70° at 12 knots 41/97 miles
Clouds
  • Overcast at 900' AGL
Conditions
  • Light Rain